Time;durP1;ratioP1;P1;durP2;ratioP2;P2;SDS_P1;SDS_P2;PMS_P1;PMS_P2;Temp;Humidity;BMP_temperature;BMP_pressure;BME280_temperature;BME280_humidity;BME280_pressure;Samples;Min_cycle;Max_cycle;Signal;HPM_P1;HPM_P2
2024/01/22 00:01:43;;;;;;;8.65;3.08;;;;;;;9.73;85.28;100695.16;3611240;39;20063;-69
2024/01/22 00:04:10;;;;;;;4.00;2.50;;;;;;;9.77;84.96;100678.78;3608299;39;20159;-69
2024/01/22 00:06:39;;;;;;;4.18;2.95;;;;;;;9.77;84.15;100691.34;3607715;39;20059;-69
2024/01/22 00:09:06;;;;;;;4.95;2.75;;;;;;;9.75;84.71;100687.88;3607693;39;20077;-69
2024/01/22 00:11:32;;;;;;;4.00;2.85;;;;;;;9.65;84.01;100662.56;3608689;39;20051;-69
2024/01/22 00:14:00;;;;;;;6.50;3.08;;;;;;;9.79;84.70;100662.56;3609004;39;20046;-69
2024/01/22 00:16:26;;;;;;;4.88;2.75;;;;;;;9.76;84.96;100657.38;3607472;39;20051;-70
2024/01/22 00:18:52;;;;;;;4.43;2.88;;;;;;;9.76;84.72;100635.91;3610114;39;20320;-69
2024/01/22 00:21:18;;;;;;;4.20;2.60;;;;;;;9.90;84.55;100660.09;3608512;39;20054;-71
2024/01/22 00:23:44;;;;;;;6.43;2.95;;;;;;;9.87;84.15;100678.22;3607616;39;20079;-69
2024/01/22 00:26:12;;;;;;;4.32;2.88;;;;;;;9.90;84.08;100659.25;3606579;39;20395;-69
2024/01/22 00:28:39;;;;;;;5.07;2.60;;;;;;;9.93;84.14;100632.19;3600244;39;20043;-69
2024/01/22 00:31:04;;;;;;;3.78;2.55;;;;;;;9.96;83.42;100643.59;3609288;39;20043;-69
2024/01/22 00:33:30;;;;;;;5.28;2.80;;;;;;;9.95;83.87;100620.38;3610777;39;20422;-70
2024/01/22 00:35:56;;;;;;;4.57;2.85;;;;;;;9.96;83.40;100611.38;3609313;39;20047;-69
2024/01/22 00:38:21;;;;;;;4.55;2.63;;;;;;;9.98;83.46;100590.66;3608383;39;20687;-70
2024/01/22 00:40:47;;;;;;;6.47;2.85;;;;;;;9.96;83.50;100583.69;3606915;39;20399;-69
2024/01/22 00:43:13;;;;;;;3.58;2.47;;;;;;;10.09;83.56;100589.13;3597358;39;20070;-69
2024/01/22 00:45:39;;;;;;;5.60;2.50;;;;;;;10.08;82.81;100587.38;3607207;39;20051;-68
2024/01/22 00:48:06;;;;;;;5.20;2.72;;;;;;;10.16;82.68;100590.47;3607562;39;20403;-68
2024/01/22 00:50:31;;;;;;;2.95;2.40;;;;;;;10.15;82.59;100586.06;3608555;39;20400;-68
2024/01/22 00:52:57;;;;;;;2.55;2.33;;;;;;;10.18;82.97;100583.13;3606093;39;20120;-68
2024/01/22 00:55:22;;;;;;;3.60;2.40;;;;;;;10.19;81.83;100585.75;3605411;39;20051;-68
2024/01/22 00:57:48;;;;;;;4.25;2.25;;;;;;;10.07;82.06;100551.63;3606558;39;20064;-69
2024/01/22 01:00:15;;;;;;;4.22;2.28;;;;;;;10.26;82.13;100569.25;3606240;39;20439;-69
2024/01/22 01:02:41;;;;;;;3.72;2.30;;;;;;;10.28;81.63;100578.97;3609212;39;20055;-69
2024/01/22 01:05:07;;;;;;;3.25;2.38;;;;;;;10.31;82.04;100581.44;3600607;39;20058;-68
2024/01/22 01:07:33;;;;;;;4.28;2.50;;;;;;;10.29;82.48;100575.31;3606114;39;20056;-69
2024/01/22 01:09:59;;;;;;;4.13;2.58;;;;;;;10.32;82.33;100577.78;3606003;39;20467;-69
2024/01/22 01:12:24;;;;;;;3.15;2.20;;;;;;;10.26;81.94;100575.50;3605879;39;20064;-69
2024/01/22 01:14:50;;;;;;;3.53;2.42;;;;;;;10.35;81.44;100574.91;3608169;39;20058;-69
2024/01/22 01:17:15;;;;;;;3.45;2.10;;;;;;;10.37;81.16;100562.25;3607494;39;20065;-68
2024/01/22 01:19:41;;;;;;;3.75;2.30;;;;;;;10.35;81.78;100569.53;3609489;39;20047;-69
2024/01/22 01:22:07;;;;;;;3.72;2.20;;;;;;;10.31;81.63;100525.03;3607023;39;20059;-69
2024/01/22 01:24:32;;;;;;;2.50;1.70;;;;;;;10.46;81.89;100560.75;3606025;39;20380;-69
2024/01/22 01:26:58;;;;;;;4.28;2.03;;;;;;;10.50;81.34;100556.03;3608550;39;20055;-69
2024/01/22 01:29:23;;;;;;;3.85;2.08;;;;;;;10.49;81.55;100548.94;3607624;39;20051;-69
2024/01/22 01:31:49;;;;;;;4.10;2.33;;;;;;;10.53;81.04;100556.72;3608962;39;20047;-68
2024/01/22 01:34:14;;;;;;;6.68;2.45;;;;;;;10.54;80.74;100536.94;3607475;39;20066;-68
2024/01/22 01:36:40;;;;;;;3.22;2.10;;;;;;;10.52;81.32;100532.63;3605999;39;20205;-68
2024/01/22 01:39:06;;;;;;;4.00;2.15;;;;;;;10.36;81.51;100492.47;3604111;39;20058;-69
2024/01/22 01:41:31;;;;;;;5.70;2.00;;;;;;;10.56;81.35;100502.78;3605916;39;20062;-68
2024/01/22 01:43:57;;;;;;;4.88;2.30;;;;;;;10.57;80.95;100506.31;3607807;39;20102;-68
2024/01/22 01:46:23;;;;;;;2.40;1.85;;;;;;;10.63;80.96;100552.47;3608713;39;20063;-69
2024/01/22 01:48:50;;;;;;;3.55;1.95;;;;;;;10.66;80.51;100505.69;3600385;39;20063;-69
2024/01/22 01:51:16;;;;;;;2.75;1.70;;;;;;;10.66;80.60;100500.31;3604258;39;20055;-69
2024/01/22 01:53:46;;;;;;;2.38;2.00;;;;;;;10.66;81.09;100477.00;3604708;39;20090;-69
2024/01/22 01:56:12;;;;;;;2.30;1.77;;;;;;;10.69;80.72;100487.53;3604140;39;20287;-68
2024/01/22 01:58:38;;;;;;;4.40;2.15;;;;;;;10.55;81.01;100465.22;3605877;39;20055;-69
2024/01/22 02:01:06;;;;;;;2.63;1.92;;;;;;;10.67;80.73;100488.59;3607222;39;20130;-69
2024/01/22 02:03:31;;;;;;;2.28;1.88;;;;;;;10.69;81.43;100486.69;3608525;39;20119;-69
2024/01/22 02:05:58;;;;;;;4.38;2.00;;;;;;;10.69;81.89;100492.91;3606856;39;20055;-69
2024/01/22 02:08:23;;;;;;;3.25;1.85;;;;;;;10.72;81.56;100496.34;3606654;39;20113;-68
2024/01/22 02:10:49;;;;;;;2.78;1.73;;;;;;;10.72;81.93;100494.53;3609964;39;20051;-69
2024/01/22 02:13:15;;;;;;;3.20;2.13;;;;;;;10.53;82.01;100445.66;3605282;39;20422;-69
2024/01/22 02:15:42;;;;;;;2.42;2.05;;;;;;;10.72;81.63;100459.59;3607047;39;20047;-70
2024/01/22 02:18:08;;;;;;;3.53;1.67;;;;;;;10.79;81.67;100466.25;3611505;39;20426;-69
2024/01/22 02:20:33;;;;;;;2.20;1.67;;;;;;;10.74;81.63;100433.44;3607664;39;20403;-69
2024/01/22 02:23:06;;;;;;;4.68;1.85;;;;;;;10.76;82.67;100438.72;3610270;39;20061;-70
2024/01/22 02:25:32;;;;;;;4.50;1.85;;;;;;;10.71;82.13;100430.97;3608111;39;20058;-69
2024/01/22 02:27:58;;;;;;;2.33;1.63;;;;;;;10.80;82.29;100462.59;3610123;39;20409;-69
2024/01/22 02:30:24;;;;;;;4.07;1.88;;;;;;;10.80;82.21;100429.47;3609458;39;20087;-70
2024/01/22 02:32:50;;;;;;;3.40;1.90;;;;;;;10.68;82.45;100407.84;3608764;39;21240;-69
2024/01/22 02:35:17;;;;;;;2.60;1.80;;;;;;;10.85;82.05;100413.91;3609189;39;20094;-69
2024/01/22 02:37:44;;;;;;;2.17;1.60;;;;;;;10.84;82.74;100404.94;3613989;39;20058;-70
2024/01/22 02:40:10;;;;;;;2.70;1.55;;;;;;;10.83;83.16;100397.84;3607127;39;20119;-69
2024/01/22 02:42:35;;;;;;;2.80;1.80;;;;;;;10.84;83.31;100382.56;3597484;39;20095;-70
2024/01/22 02:45:02;;;;;;;2.47;1.77;;;;;;;10.85;83.41;100374.41;3610467;39;20047;-70
2024/01/22 02:47:27;;;;;;;4.47;1.95;;;;;;;10.67;83.94;100343.44;3608087;39;20044;-70
2024/01/22 02:49:53;;;;;;;2.15;1.77;;;;;;;10.83;83.99;100365.59;3611596;39;21245;-70
2024/01/22 02:52:19;;;;;;;2.28;2.08;;;;;;;10.85;84.67;100377.09;3605934;39;20077;-70
2024/01/22 02:54:44;;;;;;;2.90;1.70;;;;;;;10.81;84.69;100345.16;3607058;39;20042;-70
2024/01/22 02:57:11;;;;;;;1.92;1.40;;;;;;;10.84;85.23;100345.78;3607952;39;20053;-70
2024/01/22 02:59:37;;;;;;;2.20;1.58;;;;;;;10.89;84.58;100353.53;3606649;39;20055;-69
2024/01/22 03:02:03;;;;;;;3.08;1.80;;;;;;;10.74;86.30;100328.59;3606998;39;20381;-68
2024/01/22 03:04:29;;;;;;;2.85;1.75;;;;;;;10.78;87.04;100316.66;3607619;39;20051;-67
2024/01/22 03:06:56;;;;;;;1.50;1.40;;;;;;;10.73;89.18;100342.16;3609551;39;21144;-65
2024/01/22 03:09:22;;;;;;;2.53;1.77;;;;;;;10.71;89.41;100327.94;3607016;39;20326;-65
2024/01/22 03:11:48;;;;;;;3.78;1.60;;;;;;;10.64;90.85;100312.25;3608840;39;20073;-65
2024/01/22 03:14:13;;;;;;;4.05;1.50;;;;;;;10.59;91.12;100322.50;3606561;39;20043;-65
2024/01/22 03:16:39;;;;;;;2.22;1.42;;;;;;;10.62;91.80;100313.31;3606316;39;20047;-64
2024/01/22 03:19:05;;;;;;;2.75;1.90;;;;;;;10.52;92.48;100299.66;3609721;39;20092;-64
2024/01/22 03:21:30;;;;;;;3.03;1.90;;;;;;;10.52;92.72;100312.25;3607827;39;20099;-64
2024/01/22 03:23:56;;;;;;;2.35;1.67;;;;;;;10.45;94.42;100291.19;3610257;39;20067;-65
2024/01/22 03:26:23;;;;;;;2.67;1.73;;;;;;;10.37;94.39;100285.50;3609537;39;20177;-65
2024/01/22 03:28:50;;;;;;;2.17;1.63;;;;;;;10.47;94.87;100298.31;3609174;39;20419;-65
2024/01/22 03:31:37;;;;;;;4.30;1.50;;;;;;;10.48;95.14;100289.25;3607289;39;20055;-66
2024/01/22 03:34:03;;;;;;;2.22;1.70;;;;;;;10.48;95.89;100289.25;3600824;39;20061;-65
2024/01/22 03:36:29;;;;;;;2.90;1.55;;;;;;;10.43;95.58;100289.56;3608787;39;20118;-66
2024/01/22 03:38:54;;;;;;;2.28;1.60;;;;;;;10.53;96.16;100290.66;3606936;39;20418;-65
2024/01/22 03:41:20;;;;;;;2.00;1.58;;;;;;;10.37;95.80;100277.44;3604000;39;20067;-66
2024/01/22 03:43:45;;;;;;;2.03;1.40;;;;;;;10.57;96.24;100283.25;3607427;39;20058;-66
2024/01/22 03:46:13;;;;;;;1.40;1.23;;;;;;;10.53;96.46;100281.72;3600687;39;20057;-66
2024/01/22 03:48:39;;;;;;;2.25;1.38;;;;;;;10.62;96.80;100287.31;3607789;39;20058;-66
2024/01/22 03:51:06;;;;;;;1.40;1.30;;;;;;;10.62;96.11;100264.94;3604289;39;20423;-66
2024/01/22 03:53:32;;;;;;;1.60;1.30;;;;;;;10.49;96.49;100226.47;3606799;39;20065;-66
2024/01/22 03:55:57;;;;;;;3.13;1.50;;;;;;;10.69;95.80;100250.97;3608538;39;20063;-66
2024/01/22 03:58:23;;;;;;;1.90;1.30;;;;;;;10.75;95.79;100264.94;3608144;39;20117;-65
2024/01/22 04:00:49;;;;;;;2.90;1.40;;;;;;;10.79;95.59;100259.25;3610471;39;20065;-66
2024/01/22 04:03:14;;;;;;;2.45;1.52;;;;;;;10.77;95.93;100258.47;3608152;39;20066;-65
2024/01/22 04:05:42;;;;;;;1.52;1.42;;;;;;;10.78;96.23;100260.19;3607111;39;20216;-64
2024/01/22 04:08:08;;;;;;;2.25;1.42;;;;;;;10.78;96.65;100267.41;3607256;39;20047;-64
2024/01/22 04:10:33;;;;;;;2.83;1.50;;;;;;;10.77;97.61;100258.47;3607537;39;20307;-65
2024/01/22 04:12:59;;;;;;;1.88;1.40;;;;;;;10.44;97.12;100222.31;3610255;39;20050;-65
2024/01/22 04:15:25;;;;;;;1.98;1.40;;;;;;;10.78;97.91;100237.81;3609006;39;20051;-65
2024/01/22 04:17:50;;;;;;;1.40;1.30;;;;;;;10.78;97.99;100253.94;3608510;39;20052;-66
2024/01/22 04:20:16;;;;;;;4.22;1.02;;;;;;;10.84;97.70;100254.38;3608345;39;20307;-65
2024/01/22 04:22:41;;;;;;;3.58;1.30;;;;;;;10.84;97.19;100238.25;3606168;39;20316;-65
2024/01/22 04:25:07;;;;;;;1.05;0.93;;;;;;;10.86;98.04;100248.91;3610092;39;20128;-65
2024/01/22 04:27:33;;;;;;;1.65;1.25;;;;;;;10.87;98.37;100245.22;3607943;39;20055;-67
2024/01/22 04:29:59;;;;;;;1.27;1.00;;;;;;;10.86;97.34;100255.13;3610064;39;20311;-66
2024/01/22 04:32:24;;;;;;;1.58;1.02;;;;;;;11.00;97.18;100246.06;3598619;39;20054;-66
2024/01/22 04:34:50;;;;;;;2.35;1.05;;;;;;;11.01;97.03;100246.94;3609445;39;20055;-67
2024/01/22 04:37:16;;;;;;;2.33;0.88;;;;;;;11.06;96.79;100236.69;3606513;39;20303;-67
2024/01/22 04:39:42;;;;;;;1.42;1.15;;;;;;;11.01;97.20;100220.91;3606156;39;20563;-67
2024/01/22 04:42:09;;;;;;;3.75;1.10;;;;;;;11.15;97.51;100231.47;3605434;39;20099;-67
2024/01/22 04:44:35;;;;;;;1.50;0.90;;;;;;;11.18;96.46;100230.41;3607945;39;20081;-67
2024/01/22 04:47:01;;;;;;;2.28;1.10;;;;;;;11.17;97.03;100217.94;3608273;39;20051;-67
2024/01/22 04:49:27;;;;;;;2.20;1.13;;;;;;;11.28;96.86;100226.06;3609004;39;20050;-68
2024/01/22 04:51:52;;;;;;;2.20;0.80;;;;;;;11.29;95.72;100219.72;3607518;39;20053;-68
2024/01/22 04:54:18;;;;;;;1.45;0.93;;;;;;;11.41;95.46;100230.53;3608800;39;20415;-67
2024/01/22 04:56:48;;;;;;;1.52;0.80;;;;;;;11.47;94.63;100233.59;3610871;39;20058;-67
2024/01/22 04:59:14;;;;;;;1.33;0.90;;;;;;;11.55;94.55;100231.22;3607967;39;20058;-68
2024/01/22 05:01:43;;;;;;;1.10;0.90;;;;;;;11.39;94.59;100196.53;3611318;39;20051;-68
2024/01/22 05:04:08;;;;;;;1.58;0.90;;;;;;;11.61;94.15;100217.28;3610434;39;20049;-67
2024/01/22 05:06:34;;;;;;;1.67;0.90;;;;;;;11.65;94.33;100217.91;3609504;39;20059;-68
2024/01/22 05:08:59;;;;;;;2.65;1.42;;;;;;;11.63;94.37;100241.38;3608106;39;20080;-69
2024/01/22 05:11:25;;;;;;;1.75;1.20;;;;;;;11.69;94.24;100240.94;3606953;39;20047;-69
2024/01/22 05:13:53;;;;;;;2.22;0.98;;;;;;;11.73;93.58;100230.78;3607789;39;20954;-69
2024/01/22 05:16:22;;;;;;;1.20;1.02;;;;;;;11.54;93.27;100185.56;3606530;39;20086;-69
2024/01/22 05:18:50;;;;;;;2.28;0.88;;;;;;;11.82;93.03;100224.69;3599362;39;20052;-69
2024/01/22 05:21:15;;;;;;;1.33;0.80;;;;;;;11.52;93.29;100169.53;3607075;39;20047;-69
2024/01/22 05:23:41;;;;;;;1.58;1.02;;;;;;;11.84;93.29;100228.13;3608174;39;20069;-69
2024/01/22 05:26:08;;;;;;;2.67;0.98;;;;;;;11.81;93.46;100204.13;3607828;39;20155;-69
2024/01/22 05:28:35;;;;;;;2.47;0.98;;;;;;;11.92;93.78;100241.03;3607876;39;20039;-69
2024/01/22 05:31:01;;;;;;;1.35;0.75;;;;;;;11.98;93.24;100227.09;3607108;39;20442;-68
2024/01/22 05:33:28;;;;;;;1.60;0.85;;;;;;;11.96;93.26;100212.91;3605850;39;20131;-68
2024/01/22 05:35:55;;;;;;;2.20;1.00;;;;;;;11.83;94.32;100207.56;3608694;39;20050;-69
2024/01/22 05:38:21;;;;;;;2.85;0.90;;;;;;;11.95;94.62;100236.25;3606027;39;20038;-66
2024/01/22 05:40:47;;;;;;;1.55;0.77;;;;;;;11.91;95.41;100226.72;3610562;39;20455;-67
2024/01/22 05:43:12;;;;;;;1.05;0.82;;;;;;;11.87;96.22;100243.25;3609771;39;20063;-66
2024/01/22 05:45:38;;;;;;;1.95;0.90;;;;;;;11.68;97.12;100214.97;3609123;39;20055;-65
2024/01/22 05:48:06;;;;;;;1.17;0.80;;;;;;;11.82;97.25;100235.47;3609436;39;20058;-67
2024/01/22 05:50:32;;;;;;;0.80;0.80;;;;;;;11.77;97.47;100230.44;3608603;39;20055;-64
2024/01/22 05:52:58;;;;;;;2.28;1.00;;;;;;;11.75;98.38;100245.00;3609407;39;20155;-63
2024/01/22 05:55:23;;;;;;;1.02;0.93;;;;;;;11.67;98.84;100242.91;3609355;39;20386;-64
2024/01/22 05:57:49;;;;;;;6.55;4.35;;;;;;;11.65;99.52;100254.75;3608942;39;20119;-63
2024/01/22 06:00:17;;;;;;;2.75;1.10;;;;;;;11.61;100.00;100235.28;3608590;39;20058;-65
2024/01/22 06:02:43;;;;;;;1.98;0.90;;;;;;;11.58;100.00;100243.59;3608878;39;20101;-65
2024/01/22 06:05:12;;;;;;;1.55;1.10;;;;;;;11.54;100.00;100242.06;3609982;39;20061;-65
2024/01/22 06:07:39;;;;;;;2.88;1.05;;;;;;;11.54;100.00;100244.78;3607823;39;20038;-65
2024/01/22 06:10:06;;;;;;;1.85;1.30;;;;;;;11.44;100.00;100235.69;3608990;39;20061;-65
2024/01/22 06:12:34;;;;;;;3.20;1.25;;;;;;;11.55;100.00;100244.66;3608353;39;20051;-65
2024/01/22 06:15:00;;;;;;;1.42;1.13;;;;;;;11.52;100.00;100270.97;3608839;39;20284;-65
2024/01/22 06:17:30;;;;;;;3.15;1.13;;;;;;;11.35;100.00;100250.66;3610602;39;20055;-66
2024/01/22 06:19:59;;;;;;;2.47;1.20;;;;;;;11.49;100.00;100247.81;3603618;39;20383;-64
2024/01/22 06:22:25;;;;;;;1.10;1.00;;;;;;;11.49;100.00;100246.97;3608189;39;20120;-65
2024/01/22 06:24:50;;;;;;;1.83;1.10;;;;;;;10.94;100.00;100141.63;3606671;39;20384;-64
2024/01/22 06:27:16;;;;;;;2.45;1.20;;;;;;;11.44;100.00;100224.91;3609609;39;20051;-64
2024/01/22 06:29:42;;;;;;;2.40;1.30;;;;;;;11.43;100.00;100234.81;3610419;39;20063;-64
2024/01/22 06:32:08;;;;;;;2.67;1.20;;;;;;;11.39;100.00;100253.03;3609143;39;20058;-65
2024/01/22 06:34:35;;;;;;;4.03;1.30;;;;;;;11.39;100.00;100255.72;3609553;39;20076;-64
2024/01/22 06:37:01;;;;;;;1.30;1.05;;;;;;;11.45;100.00;100249.03;3609853;39;20281;-65
2024/01/22 06:39:26;;;;;;;2.80;1.30;;;;;;;11.48;100.00;100250.59;3611015;39;20413;-64
2024/01/22 06:41:52;;;;;;;1.75;1.23;;;;;;;11.43;100.00;100229.44;3609577;39;20047;-64
2024/01/22 06:44:17;;;;;;;1.55;1.15;;;;;;;11.46;100.00;100242.66;3609928;39;20287;-65
2024/01/22 06:46:43;;;;;;;0.93;0.93;;;;;;;11.48;100.00;100247.91;3610634;39;20059;-65
2024/01/22 06:49:09;;;;;;;1.63;1.00;;;;;;;11.51;100.00;100263.84;3609093;39;20055;-65
2024/01/22 06:51:34;;;;;;;1.23;1.13;;;;;;;11.51;100.00;100274.59;3610547;39;20086;-65
2024/01/22 06:54:00;;;;;;;2.05;0.90;;;;;;;11.50;100.00;100271.06;3609047;39;20143;-64
2024/01/22 06:56:25;;;;;;;1.85;0.95;;;;;;;11.53;100.00;100280.75;3608047;39;20118;-65
2024/01/22 06:58:51;;;;;;;2.78;1.00;;;;;;;11.53;100.00;100284.28;3608175;39;20422;-66
2024/01/22 07:01:18;;;;;;;2.03;0.82;;;;;;;11.49;100.00;100287.34;3608383;39;20047;-65
2024/01/22 07:03:45;;;;;;;1.27;1.00;;;;;;;11.52;100.00;100287.97;3608609;39;20830;-65
2024/01/22 07:06:11;;;;;;;1.05;0.82;;;;;;;11.52;100.00;100285.28;3611318;39;20047;-66
2024/01/22 07:08:36;;;;;;;1.40;1.08;;;;;;;11.53;100.00;100272.66;3610731;39;20063;-65
2024/01/22 07:11:02;;;;;;;2.78;1.13;;;;;;;11.52;100.00;100276.34;3605610;39;20050;-65
2024/01/22 07:13:28;;;;;;;1.60;1.13;;;;;;;11.37;100.00;100246.91;3606829;39;20082;-66
2024/01/22 07:15:54;;;;;;;3.88;1.17;;;;;;;11.55;100.00;100282.34;3607935;39;20054;-67
2024/01/22 07:18:20;;;;;;;2.50;1.20;;;;;;;11.54;100.00;100279.75;3609425;39;20047;-67
2024/01/22 07:20:45;;;;;;;2.25;1.15;;;;;;;11.57;100.00;100268.75;3608413;39;20053;-67
2024/01/22 07:23:11;;;;;;;2.17;1.17;;;;;;;11.55;100.00;100271.59;3608350;39;20063;-67
2024/01/22 07:25:37;;;;;;;4.90;1.40;;;;;;;11.61;100.00;100283.72;3609829;39;20063;-67
2024/01/22 07:28:04;;;;;;;3.85;1.42;;;;;;;11.60;100.00;100273.91;3608540;39;20332;-68
2024/01/22 07:30:29;;;;;;;6.30;1.70;;;;;;;11.60;100.00;100282.00;3608654;39;20059;-67
2024/01/22 07:32:55;;;;;;;3.97;1.67;;;;;;;11.63;100.00;100268.31;3609112;39;20527;-68
2024/01/22 07:35:21;;;;;;;4.70;1.65;;;;;;;11.65;100.00;100277.13;3607347;39;20047;-67
2024/01/22 07:37:46;;;;;;;2.42;1.20;;;;;;;11.66;100.00;100261.84;3606748;39;20415;-68
2024/01/22 07:40:12;;;;;;;3.50;1.55;;;;;;;11.60;100.00;100255.06;3608571;39;20063;-69
2024/01/22 07:42:41;;;;;;;2.85;1.42;;;;;;;11.73;100.00;100284.63;3606935;39;20051;-67
2024/01/22 07:45:09;;;;;;;3.55;1.33;;;;;;;11.74;100.00;100276.44;3607461;39;20115;-67
2024/01/22 07:47:35;;;;;;;3.55;1.45;;;;;;;11.59;100.00;100256.06;3601454;39;20085;-67
2024/01/22 07:50:06;;;;;;;3.58;1.55;;;;;;;11.77;100.00;100280.75;3607836;39;20605;-67
2024/01/22 07:52:33;;;;;;;4.45;2.00;;;;;;;11.62;100.00;100266.59;3610132;39;20112;-67
2024/01/22 07:55:00;;;;;;;3.28;1.60;;;;;;;11.79;100.00;100295.78;3605551;39;20050;-67
2024/01/22 07:57:26;;;;;;;5.65;1.67;;;;;;;11.77;100.00;100276.22;3600034;39;20051;-66
2024/01/22 07:59:51;;;;;;;8.48;2.20;;;;;;;11.76;100.00;100269.09;3606865;39;20054;-66
2024/01/22 08:02:17;;;;;;;6.93;1.83;;;;;;;11.54;100.00;100234.84;3606850;39;20299;-65
2024/01/22 08:04:42;;;;;;;9.65;2.45;;;;;;;11.73;100.00;100285.47;3608419;39;20067;-65
2024/01/22 08:07:08;;;;;;;11.18;2.63;;;;;;;11.70;100.00;100277.63;3607431;39;20061;-66
2024/01/22 08:09:34;;;;;;;6.57;2.10;;;;;;;11.73;100.00;100281.94;3605628;39;20375;-66
2024/01/22 08:12:00;;;;;;;13.40;2.60;;;;;;;11.74;100.00;100276.44;3605974;39;20059;-65
2024/01/22 08:14:26;;;;;;;11.05;2.72;;;;;;;11.76;100.00;100273.63;3607718;39;20314;-65
2024/01/22 08:16:51;;;;;;;11.52;2.85;;;;;;;11.79;100.00;100279.63;3603259;39;20051;-66
2024/01/22 08:19:17;;;;;;;15.15;3.40;;;;;;;11.81;100.00;100272.31;3600858;39;20078;-65
2024/01/22 08:21:43;;;;;;;14.98;3.55;;;;;;;11.75;100.00;100278.16;3607207;39;20066;-64
2024/01/22 08:24:09;;;;;;;13.30;3.70;;;;;;;11.73;100.00;100280.09;3608827;39;20047;-65
2024/01/22 08:26:35;;;;;;;11.00;2.78;;;;;;;11.76;100.00;100295.16;3606740;39;20045;-65
2024/01/22 08:29:01;;;;;;;10.38;3.08;;;;;;;11.72;100.00;100312.53;3609014;39;20051;-65
2024/01/22 08:31:26;;;;;;;10.85;2.72;;;;;;;11.69;100.00;100286.69;3607097;39;20128;-63
2024/01/22 08:33:54;;;;;;;13.32;2.83;;;;;;;11.69;100.00;100308.22;3608334;39;20059;-62
2024/01/22 08:36:20;;;;;;;16.60;3.05;;;;;;;11.66;100.00;100323.75;3608898;39;20059;-62
2024/01/22 08:38:45;;;;;;;9.45;2.00;;;;;;;11.65;100.00;100305.91;3607007;39;20043;-62
2024/01/22 08:41:11;;;;;;;11.10;2.45;;;;;;;11.66;100.00;100326.44;3600549;39;20331;-65
2024/01/22 08:43:37;;;;;;;9.20;2.75;;;;;;;11.63;100.00;100323.00;3605020;39;20054;-65
2024/01/22 08:46:02;;;;;;;14.50;3.17;;;;;;;11.61;100.00;100313.34;3606792;39;20170;-64
2024/01/22 08:48:30;;;;;;;13.13;3.28;;;;;;;11.62;100.00;100325.81;3607766;39;20075;-63
2024/01/22 08:50:57;;;;;;;9.55;3.33;;;;;;;11.59;100.00;100350.28;3609418;39;20066;-64
2024/01/22 08:53:23;;;;;;;12.40;2.90;;;;;;;11.59;100.00;100342.22;3608665;39;20418;-64
2024/01/22 08:55:49;;;;;;;12.07;2.97;;;;;;;11.50;100.00;100310.59;3609358;39;20103;-64
2024/01/22 08:58:18;;;;;;;14.05;3.15;;;;;;;11.49;100.00;100312.41;3607720;39;20047;-65
2024/01/22 09:00:43;;;;;;;13.07;2.30;;;;;;;11.60;100.00;100338.53;3609110;39;20085;-64
2024/01/22 09:03:09;;;;;;;9.40;2.50;;;;;;;11.60;100.00;100338.53;3610457;39;20067;-65
2024/01/22 09:05:35;;;;;;;10.32;2.50;;;;;;;11.61;100.00;100324.13;3609194;39;20062;-64
2024/01/22 09:08:00;;;;;;;11.93;2.80;;;;;;;11.57;100.00;100338.75;3609217;39;20299;-64
2024/01/22 09:10:26;;;;;;;13.00;3.05;;;;;;;11.50;100.00;100316.81;3609754;39;20054;-64
2024/01/22 09:12:55;;;;;;;11.55;2.80;;;;;;;11.53;100.00;100331.88;3610267;39;20066;-65
2024/01/22 09:15:21;;;;;;;12.60;3.03;;;;;;;11.48;100.00;100326.84;3610439;39;20071;-64
2024/01/22 09:17:47;;;;;;;13.77;2.92;;;;;;;11.46;100.00;100319.88;3611789;39;20066;-65
2024/01/22 09:20:14;;;;;;;12.52;3.03;;;;;;;11.43;100.00;100323.63;3613676;39;20055;-65
2024/01/22 09:22:40;;;;;;;15.90;3.05;;;;;;;11.43;100.00;100331.72;3610610;39;20400;-65
2024/01/22 09:25:06;;;;;;;14.13;3.28;;;;;;;11.42;100.00;100331.81;3611468;39;20394;-65
2024/01/22 09:27:32;;;;;;;14.10;3.00;;;;;;;11.39;100.00;100317.63;3609763;39;20059;-65
2024/01/22 09:29:58;;;;;;;12.07;3.03;;;;;;;11.41;100.00;100325.56;3612847;39;20128;-64
2024/01/22 09:32:25;;;;;;;14.95;2.70;;;;;;;11.43;100.00;100314.72;3610662;39;20505;-65
2024/01/22 09:34:51;;;;;;;11.77;2.83;;;;;;;11.41;100.00;100333.63;3611894;39;20090;-65
2024/01/22 09:37:17;;;;;;;11.82;3.42;;;;;;;11.39;100.00;100324.84;3607775;39;20250;-64
2024/01/22 09:39:44;;;;;;;12.93;2.63;;;;;;;11.40;100.00;100326.53;3610936;39;20103;-64
2024/01/22 09:42:14;;;;;;;10.32;2.90;;;;;;;11.43;100.00;100329.00;3612931;39;20054;-64
2024/01/22 09:44:41;;;;;;;15.98;2.70;;;;;;;11.45;100.00;100336.97;3608053;39;20055;-64
2024/01/22 09:47:09;;;;;;;14.27;2.97;;;;;;;11.46;100.00;100341.41;3611457;39;20076;-64
2024/01/22 09:49:36;;;;;;;12.43;2.65;;;;;;;11.49;100.00;100349.25;3611179;39;20055;-64
2024/01/22 09:52:03;;;;;;;8.52;2.28;;;;;;;11.52;100.00;100352.56;3611466;39;20119;-64
2024/01/22 09:54:30;;;;;;;8.15;2.30;;;;;;;11.51;100.00;100360.75;3611002;39;20054;-63
2024/01/22 09:57:02;;;;;;;9.60;2.80;;;;;;;11.51;100.00;100371.50;3610257;39;20058;-63
2024/01/22 09:59:29;;;;;;;7.15;2.40;;;;;;;11.49;100.00;100368.09;3610885;39;20387;-64
2024/01/22 10:01:55;;;;;;;8.02;2.40;;;;;;;11.46;100.00;100374.53;3611500;39;20047;-64
2024/01/22 10:04:26;;;;;;;8.25;2.45;;;;;;;11.41;100.00;100354.31;3610725;39;20051;-63
2024/01/22 10:06:52;;;;;;;8.35;2.17;;;;;;;11.50;100.00;100385.94;3611268;39;20059;-64
2024/01/22 10:09:18;;;;;;;12.18;2.85;;;;;;;11.10;100.00;100313.47;3610662;39;20147;-64
2024/01/22 10:11:46;;;;;;;8.95;2.17;;;;;;;11.59;100.00;100385.28;3611512;39;20055;-63
2024/01/22 10:14:12;;;;;;;8.68;2.50;;;;;;;11.60;100.00;100389.69;3610516;39;20059;-64
2024/01/22 10:16:38;;;;;;;8.63;1.85;;;;;;;11.67;100.00;100390.97;3608404;39;20053;-64
2024/01/22 10:19:10;;;;;;;7.88;2.08;;;;;;;11.68;100.00;100395.38;3613481;39;20055;-64
2024/01/22 10:21:38;;;;;;;7.20;1.70;;;;;;;11.26;100.00;100340.13;3607424;39;20046;-64
2024/01/22 10:24:07;;;;;;;4.82;1.40;;;;;;;11.65;100.00;100465.59;3606297;39;20047;-66
2024/01/22 10:26:35;;;;;;;9.45;2.15;;;;;;;11.50;100.00;100472.06;3611500;39;20083;-64
2024/01/22 10:29:21;;;;;;;8.07;2.38;;;;;;;11.25;100.00;100459.50;3607960;39;20059;-65
2024/01/22 10:31:59;;;;;;;14.00;3.25;;;;;;;11.00;99.48;100480.03;3612079;39;20055;-65
2024/01/22 10:34:28;;;;;;;14.85;3.42;;;;;;;10.77;99.17;100461.94;3612650;39;20043;-64
2024/01/22 10:37:08;;;;;;;14.90;3.42;;;;;;;10.56;98.42;100469.63;3611702;39;20055;-64
2024/01/22 10:39:39;;;;;;;20.05;3.88;;;;;;;10.45;98.85;100475.75;3610162;39;20293;-64
2024/01/22 10:42:16;;;;;;;14.38;3.03;;;;;;;10.33;98.75;100484.63;3610197;39;20062;-64
2024/01/22 10:44:47;;;;;;;16.70;3.55;;;;;;;10.22;100.00;100494.22;3611952;39;20059;-64
2024/01/22 10:47:15;;;;;;;17.45;3.97;;;;;;;10.12;100.00;100476.13;3612287;39;20094;-65
2024/01/22 10:49:45;;;;;;;18.63;4.38;;;;;;;10.12;100.00;100481.50;3609955;39;20070;-65
2024/01/22 10:52:13;;;;;;;21.83;4.20;;;;;;;10.09;100.00;100489.75;3610079;39;20059;-65
2024/01/22 10:54:40;;;;;;;18.50;4.07;;;;;;;10.07;100.00;100489.00;3611677;39;20047;-64
2024/01/22 10:57:15;;;;;;;19.98;3.88;;;;;;;10.07;100.00;100481.78;3611056;39;20058;-64
2024/01/22 10:59:48;;;;;;;19.17;4.55;;;;;;;10.06;100.00;100480.06;3611871;39;20298;-65
2024/01/22 11:02:20;;;;;;;25.25;4.28;;;;;;;10.08;100.00;100475.44;3613557;39;20087;-65
2024/01/22 11:04:47;;;;;;;22.27;4.68;;;;;;;10.07;100.00;100487.16;3611197;39;20067;-66
2024/01/22 11:07:14;;;;;;;21.77;4.50;;;;;;;10.09;100.00;100476.34;3613178;39;20059;-66
2024/01/22 11:09:40;;;;;;;25.35;4.65;;;;;;;10.03;100.00;100466.00;3610568;39;20069;-67
2024/01/22 11:12:12;;;;;;;19.40;5.00;;;;;;;10.14;100.00;100484.94;3611100;39;20062;-66
2024/01/22 11:14:42;;;;;;;21.13;4.45;;;;;;;10.15;100.00;100498.28;3610043;39;20047;-66
2024/01/22 11:17:10;;;;;;;25.67;4.97;;;;;;;10.15;100.00;100494.72;3612068;39;20047;-67